Time;durP1;ratioP1;P1;durP2;ratioP2;P2;SDS_P1;SDS_P2;PMS_P1;PMS_P2;Temp;Humidity;BMP_temperature;BMP_pressure;BME280_temperature;BME280_humidity;BME280_pressure;Samples;Min_cycle;Max_cycle;Signal;HPM_P1;HPM_P2
2022/06/20 00:01:00;;;;;;;;;36.50;32.25;;;;;19.56;62.88;100805.81;6219029;22;45487;-77
2022/06/20 00:03:28;;;;;;;;;36.75;32.00;;;;;19.55;62.79;100828.13;6243653;22;45524;-77
2022/06/20 00:05:54;;;;;;;;;34.75;33.25;;;;;19.55;63.41;100838.81;6218159;22;47275;-77
2022/06/20 00:08:20;;;;;;;;;33.25;31.00;;;;;19.54;62.80;100855.75;6245786;22;45330;-77
2022/06/20 00:10:47;;;;;;;;;33.75;28.25;;;;;19.56;62.96;100868.09;6219936;22;45619;-78
2022/06/20 00:13:28;;;;;;;;;33.25;31.50;;;;;19.57;63.12;100866.34;6248156;22;45239;-77
2022/06/20 00:16:00;;;;;;;;;29.25;29.25;;;;;19.57;63.19;100867.19;6220649;22;46279;-77
2022/06/20 00:18:30;;;;;;;;;28.75;28.50;;;;;19.55;63.11;100850.34;6246487;22;45241;-76
2022/06/20 00:20:56;;;;;;;;;36.75;34.25;;;;;19.46;63.40;100855.16;6248568;22;45220;-77
2022/06/20 00:23:21;;;;;;;;;31.00;28.75;;;;;19.39;63.92;100849.22;6246448;22;45229;-77
2022/06/20 00:25:47;;;;;;;;;36.00;32.75;;;;;19.38;64.15;100845.69;6248524;22;45235;-77
2022/06/20 00:28:14;;;;;;;;;36.50;32.00;;;;;19.41;63.86;100822.47;6220093;22;45312;-78
2022/06/20 00:30:40;;;;;;;;;32.75;30.00;;;;;19.39;63.92;100806.50;6248606;22;45172;-77
2022/06/20 00:33:06;;;;;;;;;34.75;33.00;;;;;19.38;63.95;100810.09;6245756;22;45965;-77
2022/06/20 00:35:35;;;;;;;;;33.75;30.50;;;;;19.34;64.38;100840.50;6220710;22;47296;-78
2022/06/20 00:38:02;;;;;;;;;35.75;29.75;;;;;19.38;64.51;100858.16;6248600;22;45286;-77
2022/06/20 00:40:32;;;;;;;;;33.75;32.25;;;;;19.39;64.55;100858.09;6248780;22;45166;-77
2022/06/20 00:42:58;;;;;;;;;28.75;26.50;;;;;19.38;64.81;100856.34;6220849;22;45295;-77
2022/06/20 00:45:27;;;;;;;;;32.00;31.00;;;;;19.41;64.64;100867.84;6248529;22;45486;-78
2022/06/20 00:48:00;;;;;;;;;34.50;33.50;;;;;19.40;64.85;100861.63;6220840;22;45177;-77
2022/06/20 00:50:29;;;;;;;;;36.00;30.50;;;;;19.43;64.91;100860.63;6221051;22;45427;-77
2022/06/20 00:53:34;;;;;;;;;35.00;30.00;;;;;19.42;65.39;100854.44;6220303;22;45548;-77
2022/06/20 00:56:05;;;;;;;;;35.00;32.50;;;;;19.44;65.16;100852.59;6220105;22;46571;-77
2022/06/20 00:58:41;;;;;;;;;24.50;20.00;;;;;19.52;65.48;100876.31;6247764;22;45722;-78
2022/06/20 01:01:13;;;;;;;;;33.00;31.00;;;;;19.52;65.26;100887.88;6247723;22;45212;-77
2022/06/20 01:03:47;;;;;;;;;33.25;31.00;;;;;19.53;65.07;100897.59;6247766;22;45473;-78
2022/06/20 01:06:25;;;;;;;;;36.25;32.00;;;;;19.55;64.92;100890.41;6220153;22;46856;-78
2022/06/20 01:08:58;;;;;;;;;31.50;28.75;;;;;19.58;65.17;100900.09;6247427;22;45369;-78
2022/06/20 01:11:27;;;;;;;;;29.00;28.25;;;;;19.60;64.99;100888.44;6248419;22;45354;-78
2022/06/20 01:13:53;;;;;;;;;32.00;30.75;;;;;19.61;65.02;100882.16;6246622;22;45486;-78
2022/06/20 01:16:30;;;;;;;;;29.50;27.25;;;;;19.66;65.42;100891.81;6220764;22;47237;-78
2022/06/20 01:19:00;;;;;;;;;34.50;32.00;;;;;19.68;64.91;100880.16;6219772;22;45223;-78
2022/06/20 01:21:30;;;;;;;;;40.25;34.75;;;;;19.69;65.48;100867.66;6248090;22;45269;-78
2022/06/20 01:24:19;;;;;;;;;35.50;33.50;;;;;19.64;65.06;100856.25;6247873;22;45415;-77
2022/06/20 01:26:51;;;;;;;;;31.00;28.50;;;;;19.62;65.54;100848.31;6247659;22;45612;-78
2022/06/20 01:29:18;;;;;;;;;31.50;29.75;;;;;19.64;65.08;100832.22;6220140;22;45232;-78
2022/06/20 01:31:54;;;;;;;;;29.00;27.25;;;;;19.59;65.25;100825.28;6220545;22;45338;-78
2022/06/20 01:34:20;;;;;;;;;32.50;29.00;;;;;19.56;65.13;100796.00;6247287;22;45284;-77
2022/06/20 01:39:38;;;;;;;;;32.50;29.75;;;;;19.51;65.42;100738.38;6247975;22;45103;-78
2022/06/20 01:42:20;;;;;;;;;29.25;25.00;;;;;19.46;64.99;100716.31;6247968;22;45388;-78
2022/06/20 01:45:57;;;;;;;;;32.25;30.25;;;;;19.39;65.13;100703.22;6247910;22;45493;-78
2022/06/20 01:47:53;;;;;;;;;31.50;29.75;;;;;19.32;65.19;100685.72;6246704;22;45381;-77
2022/06/20 01:50:20;;;;;;;;;28.00;26.75;;;;;19.24;65.38;100658.47;6247814;22;45352;-78
2022/06/20 01:52:46;;;;;;;;;30.00;28.50;;;;;19.21;65.77;100615.03;6245328;22;45205;-77
2022/06/20 01:55:21;;;;;;;;;31.25;29.25;;;;;19.10;65.34;100573.63;6247426;22;45189;-78
2022/06/20 01:57:52;;;;;;;;;34.00;31.50;;;;;19.01;65.29;100552.69;6247538;22;45366;-78
2022/06/20 02:00:22;;;;;;;;;30.75;27.00;;;;;18.94;65.77;100521.84;6245878;22;45378;-78
2022/06/20 02:02:52;;;;;;;;;28.25;25.00;;;;;18.83;66.09;100466.28;6247802;22;45165;-78
2022/06/20 02:05:24;;;;;;;;;25.75;23.25;;;;;18.71;66.13;100446.31;6220248;22;45472;-78
2022/06/20 02:07:49;;;;;;;;;31.00;28.25;;;;;18.66;66.70;100434.97;6247743;22;45208;-78
2022/06/20 02:10:28;;;;;;;;;29.00;27.50;;;;;18.60;66.49;100448.53;6248015;22;45133;-77
2022/06/20 02:12:57;;;;;;;;;25.25;22.25;;;;;18.52;67.08;100488.88;6220510;22;45269;-78
2022/06/20 02:15:24;;;;;;;;;31.25;29.75;;;;;18.48;66.88;100539.72;6220360;22;45154;-77
2022/06/20 02:17:51;;;;;;;;;33.00;29.50;;;;;18.46;67.48;100605.53;6247669;22;45209;-78
2022/06/20 02:20:24;;;;;;;;;27.50;24.25;;;;;18.47;67.80;100628.59;6246947;22;45389;-78
2022/06/20 02:22:52;;;;;;;;;28.25;27.25;;;;;18.55;67.98;100655.88;6247649;22;45233;-78
2022/06/20 02:25:23;;;;;;;;;30.75;28.00;;;;;18.63;68.04;100667.09;6245637;22;45454;-78
2022/06/20 02:27:53;;;;;;;;;26.75;25.00;;;;;18.72;67.85;100689.88;6220003;22;46365;-78
2022/06/20 02:30:19;;;;;;;;;31.00;28.75;;;;;18.79;67.76;100696.75;6247494;22;45328;-77
2022/06/20 02:32:49;;;;;;;;;24.25;21.50;;;;;18.83;67.47;100690.34;6219751;22;45336;-78
2022/06/20 02:35:18;;;;;;;;;31.25;27.50;;;;;18.88;67.34;100700.84;6245803;22;45437;-78
2022/06/20 02:37:45;;;;;;;;;26.75;23.75;;;;;18.92;67.47;100711.34;6245456;22;46920;-78
2022/06/20 02:40:14;;;;;;;;;28.00;25.50;;;;;18.97;67.33;100727.16;6247607;22;45259;-77
2022/06/20 02:42:50;;;;;;;;;26.25;26.25;;;;;19.04;67.43;100741.16;6247540;22;45077;-78
2022/06/20 02:45:18;;;;;;;;;27.00;25.25;;;;;19.09;67.17;100757.84;6219266;22;45251;-78
2022/06/20 02:47:50;;;;;;;;;28.25;25.75;;;;;19.13;67.24;100765.66;6219791;22;47050;-77
2022/06/20 02:50:21;;;;;;;;;29.75;28.00;;;;;19.16;66.56;100765.56;6220222;22;45218;-78
2022/06/20 02:52:53;;;;;;;;;21.00;19.25;;;;;19.18;66.34;100766.34;6245617;22;45114;-77
2022/06/20 02:55:21;;;;;;;;;26.50;23.25;;;;;19.21;66.35;100760.03;6247490;22;45386;-77
2022/06/20 02:57:51;;;;;;;;;20.50;19.75;;;;;19.22;66.74;100748.44;6247400;22;45452;-78
2022/06/20 03:00:21;;;;;;;;;23.50;23.50;;;;;19.23;66.43;100739.50;6245588;22;46036;-78
2022/06/20 03:02:54;;;;;;;;;26.75;26.00;;;;;19.25;66.55;100760.78;6219517;22;45312;-77
2022/06/20 03:05:20;;;;;;;;;25.25;24.75;;;;;19.24;66.48;100775.06;6219901;22;45331;-77
2022/06/20 03:07:46;;;;;;;;;27.00;23.00;;;;;19.23;66.52;100776.00;6245373;22;47893;-77
2022/06/20 03:10:18;;;;;;;;;23.25;21.00;;;;;19.22;66.32;100784.91;6247565;22;45177;-78
2022/06/20 03:12:44;;;;;;;;;25.00;22.25;;;;;19.23;66.64;100792.88;6247126;22;45299;-78
2022/06/20 03:15:10;;;;;;;;;24.00;22.75;;;;;19.22;66.80;100793.81;6247396;22;45220;-78
2022/06/20 03:17:36;;;;;;;;;33.75;26.75;;;;;19.23;66.41;100803.56;6219609;22;48202;-78
2022/06/20 03:20:08;;;;;;;;;30.50;26.50;;;;;19.24;66.23;100807.09;6247483;22;45292;-78
2022/06/20 03:22:38;;;;;;;;;30.25;25.75;;;;;19.23;66.49;100811.56;6245401;22;45399;-78
2022/06/20 03:25:06;;;;;;;;;27.00;25.50;;;;;19.25;66.58;100824.84;6219633;22;45232;-78
2022/06/20 03:27:35;;;;;;;;;31.75;28.50;;;;;19.24;66.62;100831.09;6245371;22;47133;-78
2022/06/20 03:30:23;;;;;;;;;31.25;30.50;;;;;19.19;66.04;100833.94;6270927;22;45391;-78
2022/06/20 03:32:49;;;;;;;;;34.50;30.75;;;;;19.10;66.16;100836.97;6246341;22;45221;-78
2022/06/20 03:35:15;;;;;;;;;33.75;31.75;;;;;19.01;66.19;100843.53;6248373;22;45171;-79
2022/06/20 03:37:41;;;;;;;;;32.50;28.75;;;;;18.94;66.01;100850.88;6246504;22;47258;-77
2022/06/20 03:40:06;;;;;;;;;31.00;30.00;;;;;18.92;66.33;100858.09;6248705;22;45252;-78
2022/06/20 03:42:32;;;;;;;;;36.75;32.75;;;;;18.93;66.45;100858.97;6248790;22;45357;-78
2022/06/20 03:44:59;;;;;;;;;39.75;34.75;;;;;18.90;66.16;100859.94;6248417;22;45256;-79
2022/06/20 03:47:31;;;;;;;;;30.75;28.50;;;;;18.84;66.28;100864.59;6248767;22;45365;-79
2022/06/20 03:50:15;;;;;;;;;30.00;26.00;;;;;18.76;66.09;100870.22;6248574;22;45353;-78
2022/06/20 03:52:51;;;;;;;;;33.75;32.75;;;;;18.71;65.93;100851.69;6248595;22;45161;-78
2022/06/20 03:55:24;;;;;;;;;33.25;30.50;;;;;18.61;66.14;100857.41;6271638;22;45425;-78
2022/06/20 03:58:08;;;;;;;;;26.75;25.25;;;;;18.52;66.16;100872.81;6245739;22;46750;-78
2022/06/20 04:00:45;;;;;;;;;31.25;30.50;;;;;18.46;66.63;100874.81;6248466;22;45102;-78
2022/06/20 04:03:18;;;;;;;;;35.00;29.00;;;;;18.45;66.21;100884.59;6248175;22;45223;-77
2022/06/20 04:05:56;;;;;;;;;29.75;29.75;;;;;18.44;66.46;100885.53;6245182;22;45477;-77
2022/06/20 04:11:25;;;;;;;;;31.25;26.75;;;;;18.37;66.53;100883.13;6248048;22;45396;-77
2022/06/20 04:14:05;;;;;;;;;32.75;31.00;;;;;18.32;66.50;100895.72;6248567;22;45276;-77
2022/06/20 04:16:39;;;;;;;;;35.00;31.75;;;;;18.27;66.84;100886.09;6248111;22;45499;-77
2022/06/20 04:19:35;;;;;;;;;26.75;25.25;;;;;18.25;66.74;100895.06;6248028;22;45458;-77
2022/06/20 04:22:11;;;;;;;;;28.75;24.75;;;;;18.21;67.01;100909.41;6248006;22;45376;-77
2022/06/20 04:24:43;;;;;;;;;32.25;30.25;;;;;18.20;66.82;100910.31;6248228;22;45262;-77
2022/06/20 04:27:26;;;;;;;;;31.25;28.25;;;;;18.18;66.95;100913.06;6248358;22;45258;-77
2022/06/20 04:30:11;;;;;;;;;29.75;28.50;;;;;18.24;67.02;100915.50;6246249;22;47211;-77
2022/06/20 04:32:40;;;;;;;;;30.25;29.50;;;;;18.25;67.07;100917.22;6247966;22;45326;-77
2022/06/20 04:35:15;;;;;;;;;31.25;27.00;;;;;18.28;66.83;100914.50;6248735;22;45318;-77
2022/06/20 04:37:53;;;;;;;;;27.50;25.75;;;;;18.31;66.71;100921.53;6246435;22;45540;-77
2022/06/20 04:40:22;;;;;;;;;28.75;25.50;;;;;18.30;66.38;100933.94;6246543;22;47192;-77
2022/06/20 04:42:50;;;;;;;;;26.75;25.75;;;;;18.28;66.44;100917.16;6245832;22;45758;-77
2022/06/20 04:45:26;;;;;;;;;32.25;27.25;;;;;18.27;66.42;100922.53;6219898;22;45348;-77
2022/06/20 04:47:51;;;;;;;;;31.00;29.00;;;;;18.26;66.54;100931.47;6247573;22;45217;-78
2022/06/20 04:50:21;;;;;;;;;28.50;25.75;;;;;18.26;66.59;100937.66;6220603;22;48057;-77
2022/06/20 04:52:49;;;;;;;;;29.00;25.25;;;;;18.28;66.75;100945.59;6248293;22;45220;-76
2022/06/20 04:55:19;;;;;;;;;27.25;24.50;;;;;18.32;66.57;100954.38;6245719;22;45330;-76
2022/06/20 04:57:46;;;;;;;;;30.50;27.75;;;;;18.33;66.18;100961.44;6220872;22;45264;-77
2022/06/20 05:00:36;;;;;;;;;18.75;17.00;;;;;18.32;66.11;100960.56;6248059;22;45545;-77
2022/06/20 05:03:04;;;;;;;;;29.00;22.50;;;;;18.32;66.20;100965.03;6247839;22;45233;-77
2022/06/20 05:05:35;;;;;;;;;31.75;27.50;;;;;18.29;66.10;100966.88;6247865;22;45260;-77
2022/06/20 05:08:04;;;;;;;;;20.25;17.50;;;;;18.24;65.78;100960.81;6248043;22;45312;-77
2022/06/20 05:10:41;;;;;;;;;27.00;26.75;;;;;18.23;66.12;100964.41;6247749;22;45595;-77
2022/06/20 05:13:15;;;;;;;;;25.75;24.50;;;;;18.26;66.42;100963.44;6220410;22;45874;-76
2022/06/20 05:15:46;;;;;;;;;23.00;22.25;;;;;18.29;65.97;100961.53;6248059;22;45201;-78
2022/06/20 05:18:40;;;;;;;;;24.75;21.50;;;;;18.35;66.03;100973.78;6220311;22;45231;-77
2022/06/20 05:21:10;;;;;;;;;21.00;19.25;;;;;18.38;66.14;100959.50;6247605;22;45386;-77
2022/06/20 05:23:52;;;;;;;;;25.00;23.25;;;;;18.44;65.93;100967.28;6245494;22;45184;-77
2022/06/20 05:26:21;;;;;;;;;23.00;21.25;;;;;18.46;65.72;100960.97;6247724;22;45379;-76
2022/06/20 05:28:50;;;;;;;;;20.00;19.75;;;;;18.50;65.82;100964.44;6220315;22;45406;-79
2022/06/20 05:31:22;;;;;;;;;24.00;22.25;;;;;18.52;65.46;100974.13;6220465;22;46373;-79
2022/06/20 05:34:17;;;;;;;;;20.50;20.25;;;;;18.52;65.24;100978.56;6245550;22;45273;-81
2022/06/20 05:37:46;;;;;;;;;17.50;16.50;;;;;18.58;65.08;100975.72;6247958;22;45374;-80
2022/06/20 05:40:22;;;;;;;;;18.00;17.75;;;;;18.62;64.80;100989.81;6197186;22;45479;-81
2022/06/20 05:42:47;;;;;;;;;15.25;14.75;;;;;18.65;64.92;100995.03;6247967;22;45439;-81
2022/06/20 05:45:16;;;;;;;;;14.50;14.50;;;;;18.70;64.77;100995.75;6220616;22;45155;-81
2022/06/20 05:47:45;;;;;;;;;15.50;15.50;;;;;18.73;64.63;101003.66;6220238;22;45444;-81
2022/06/20 05:50:13;;;;;;;;;14.50;14.25;;;;;18.77;64.67;101012.47;6220175;22;45421;-80
2022/06/20 05:52:41;;;;;;;;;18.50;15.00;;;;;18.81;64.76;101011.44;6220238;22;47332;-81
2022/06/20 05:55:18;;;;;;;;;13.00;12.00;;;;;18.83;64.03;101002.47;6246809;22;45402;-81
2022/06/20 05:57:48;;;;;;;;;16.50;14.25;;;;;18.86;64.26;101020.16;6220561;22;45397;-81
2022/06/20 06:00:18;;;;;;;;;16.50;15.25;;;;;18.84;64.08;101006.84;6248504;22;45347;-81
2022/06/20 06:03:12;;;;;;;;;18.25;16.00;;;;;18.87;63.99;101012.13;6219989;22;46258;-81
2022/06/20 06:05:46;;;;;;;;;16.00;16.00;;;;;18.88;63.61;101018.31;6246797;22;45334;-80
2022/06/20 06:08:16;;;;;;;;;16.50;14.25;;;;;18.89;63.75;101026.25;6245478;22;45383;-79
2022/06/20 06:11:01;;;;;;;;;15.00;14.25;;;;;18.92;63.32;101043.97;6247318;22;45374;-79
2022/06/20 06:13:46;;;;;;;;;13.50;13.50;;;;;18.90;63.50;101045.84;6247627;22;46355;-79
2022/06/20 06:16:50;;;;;;;;;15.00;13.75;;;;;18.93;63.17;101054.59;6245446;22;45248;-79
2022/06/20 06:19:36;;;;;;;;;16.00;14.00;;;;;18.92;63.07;101058.19;6220212;22;45286;-75
2022/06/20 06:22:16;;;;;;;;;15.00;10.25;;;;;18.88;62.82;101059.22;6247480;22;45146;-74
2022/06/20 06:24:45;;;;;;;;;14.50;11.50;;;;;18.84;62.70;101065.56;6245704;22;45569;-75
2022/06/20 06:27:20;;;;;;;;;11.75;11.50;;;;;18.86;63.14;101063.72;6247647;22;45287;-75
2022/06/20 06:29:56;;;;;;;;;13.50;11.75;;;;;18.90;63.07;101065.38;6247960;22;45407;-77
2022/06/20 06:32:39;;;;;;;;;16.50;14.75;;;;;18.88;62.75;101071.69;6245530;22;45222;-76
2022/06/20 06:35:31;;;;;;;;;14.00;13.00;;;;;18.87;62.60;101072.59;6247708;22;45441;-77
2022/06/20 06:38:09;;;;;;;;;16.00;16.00;;;;;18.87;62.80;101075.25;6246410;22;45720;-78
2022/06/20 06:40:46;;;;;;;;;13.75;11.50;;;;;18.89;62.73;101078.75;6248667;22;45377;-78
2022/06/20 06:43:37;;;;;;;;;17.00;16.25;;;;;18.90;62.18;101094.72;6247249;22;45243;-77
2022/06/20 06:46:06;;;;;;;;;12.00;10.75;;;;;18.88;62.59;101093.88;6219911;22;47402;-79
2022/06/20 06:48:42;;;;;;;;;14.50;13.50;;;;;18.88;62.03;101088.56;6247978;22;45190;-80
2022/06/20 06:51:12;;;;;;;;;14.25;11.75;;;;;18.89;62.19;101079.63;6220554;22;45185;-79
2022/06/20 06:54:01;;;;;;;;;13.50;11.25;;;;;18.90;62.24;101080.50;6248071;22;45430;-80
2022/06/20 06:56:38;;;;;;;;;13.50;13.50;;;;;18.93;62.04;101094.63;6246869;22;46575;-78
2022/06/20 06:59:19;;;;;;;;;11.25;10.50;;;;;18.97;62.03;101105.19;6213677;22;45270;-79
2022/06/20 07:01:49;;;;;;;;;13.50;9.50;;;;;18.90;61.55;101112.53;6245214;22;45322;-79
2022/06/20 07:04:25;;;;;;;;;18.25;14.75;;;;;18.83;61.78;101106.50;6245696;22;45279;-77
2022/06/20 07:06:59;;;;;;;;;14.00;13.25;;;;;18.80;62.19;101117.28;6245500;22;45935;-79
2022/06/20 07:09:33;;;;;;;;;22.00;16.00;;;;;18.76;61.72;101123.63;6245199;22;45338;-78
2022/06/20 07:12:07;;;;;;;;;19.75;16.00;;;;;18.71;61.76;101120.19;6243107;22;44855;-79
2022/06/20 07:14:41;;;;;;;;;16.50;14.50;;;;;18.66;61.43;101128.34;6217592;22;45548;-78
2022/06/20 07:17:26;;;;;;;;;15.50;15.25;;;;;18.63;61.99;101128.44;6245168;22;45407;-78
2022/06/20 07:19:52;;;;;;;;;18.00;17.25;;;;;18.60;61.50;101128.53;6242050;22;45500;-79
2022/06/20 07:22:20;;;;;;;;;17.25;14.50;;;;;18.55;62.02;101127.81;6245071;22;45247;-78
2022/06/20 07:24:46;;;;;;;;;18.00;14.50;;;;;18.56;61.49;101136.69;6245544;22;45456;-79
2022/06/20 07:27:25;;;;;;;;;19.50;17.00;;;;;18.55;62.02;101142.91;6245160;22;45533;-79
2022/06/20 07:30:14;;;;;;;;;20.75;19.75;;;;;18.58;61.70;101151.72;6245314;22;45558;-79
2022/06/20 07:33:09;;;;;;;;;24.50;21.25;;;;;18.59;61.74;101155.25;6244935;22;45347;-78
2022/06/20 07:35:45;;;;;;;;;16.75;16.00;;;;;18.58;61.59;101158.81;6230735;22;45296;-78
2022/06/20 07:38:19;;;;;;;;;19.75;18.00;;;;;18.52;61.61;101163.44;6242506;22;47425;-79
2022/06/20 07:40:51;;;;;;;;;18.25;18.25;;;;;18.53;61.62;101161.66;6244813;22;45639;-78
2022/06/20 07:43:26;;;;;;;;;17.00;16.50;;;;;18.48;61.75;101167.13;6244852;22;45374;-78
2022/06/20 07:45:53;;;;;;;;;22.00;18.25;;;;;18.37;61.55;101166.56;6245526;22;45391;-78
2022/06/20 07:48:37;;;;;;;;;20.00;18.00;;;;;18.29;62.00;101160.59;6246270;22;46313;-86
2022/06/20 07:51:12;;;;;;;;;22.00;17.75;;;;;18.25;61.99;101173.09;6245937;22;45219;-87
2022/06/20 07:53:47;;;;;;;;;23.50;20.50;;;;;18.20;62.13;101171.50;6247485;22;45281;-81
2022/06/20 07:56:26;;;;;;;;;22.25;22.00;;;;;18.22;62.56;101169.66;6246768;22;45315;-80
2022/06/20 07:59:03;;;;;;;;;24.00;22.75;;;;;18.22;62.18;101175.00;6246651;22;46344;-78
2022/06/20 08:01:39;;;;;;;;;22.00;21.50;;;;;18.23;62.37;101174.06;6247353;22;45280;-80
2022/06/20 08:04:10;;;;;;;;;28.50;22.75;;;;;18.22;62.11;101175.00;6219381;22;45330;-80
2022/06/20 08:06:53;;;;;;;;;20.25;19.50;;;;;18.22;62.22;101183.00;6218504;22;45422;-85
2022/06/20 08:10:00;;;;;;;;;21.50;21.00;;;;;18.24;62.40;101181.16;6244021;22;47872;-79
2022/06/20 08:12:31;;;;;;;;;22.50;17.25;;;;;18.28;62.90;101180.13;6206220;22;45181;-80
2022/06/20 08:15:11;;;;;;;;;19.25;18.50;;;;;18.32;62.68;101178.28;6246723;22;45187;-80
2022/06/20 08:17:37;;;;;;;;;20.50;19.50;;;;;18.38;62.44;101181.63;6219105;22;45705;-79
2022/06/20 08:20:04;;;;;;;;;15.25;14.75;;;;;18.42;62.31;101180.63;6247533;22;45322;-80
2022/06/20 08:22:47;;;;;;;;;16.50;15.50;;;;;18.56;62.21;101182.03;6248323;22;45345;-80
2022/06/20 08:25:20;;;;;;;;;16.50;16.00;;;;;18.71;62.07;101177.09;6249695;22;45338;-79
2022/06/20 08:27:50;;;;;;;;;17.50;16.00;;;;;18.89;61.92;101172.13;6246407;22;45342;-84
2022/06/20 08:30:25;;;;;;;;;16.25;16.00;;;;;19.06;61.63;101176.91;6245947;22;47969;-82
2022/06/20 08:33:01;;;;;;;;;14.00;14.00;;;;;19.18;61.13;101174.75;6247667;22;45374;-85
2022/06/20 08:35:39;;;;;;;;;15.00;15.00;;;;;19.31;61.04;101175.22;6248328;22;45117;-84
2022/06/20 08:38:05;;;;;;;;;15.75;15.75;;;;;19.37;60.48;101174.13;6271206;22;45208;-83
2022/06/20 08:40:45;;;;;;;;;18.00;15.50;;;;;19.41;60.33;101180.25;6247527;22;45299;-84
2022/06/20 08:43:13;;;;;;;;;15.50;15.50;;;;;19.47;60.05;101174.72;6247897;22;45349;-82
2022/06/20 08:45:48;;;;;;;;;20.00;15.00;;;;;19.51;59.80;101171.00;6245772;22;45122;-80
2022/06/20 08:48:16;;;;;;;;;14.50;12.50;;;;;19.55;59.99;101178.00;6218584;22;45642;-80
2022/06/20 08:51:13;;;;;;;;;17.50;15.00;;;;;19.58;60.00;101189.44;6250859;22;45493;-89
2022/06/20 08:54:00;;;;;;;;;17.75;15.75;;;;;19.55;59.24;101186.88;6220418;22;45214;-83
2022/06/20 08:56:31;;;;;;;;;18.50;18.25;;;;;19.54;59.23;101201.16;6219953;22;45531;-79
2022/06/20 08:59:12;;;;;;;;;16.75;15.25;;;;;19.55;59.46;101194.88;6220123;22;46066;-85
2022/06/20 09:01:49;;;;;;;;;17.50;15.50;;;;;19.51;59.17;101206.63;6245202;22;47265;-76
2022/06/20 09:04:41;;;;;;;;;14.50;13.00;;;;;19.46;59.43;101205.88;6246989;22;45217;-76
2022/06/20 09:07:34;;;;;;;;;16.50;15.25;;;;;19.42;59.32;101201.56;6232656;22;45440;-76
2022/06/20 09:10:29;;;;;;;;;17.50;15.00;;;;;19.43;59.37;101213.97;6219853;22;45328;-76
2022/06/20 09:13:39;;;;;;;;;20.50;18.00;;;;;19.41;59.58;101223.84;6247435;22;45322;-76
2022/06/20 09:16:22;;;;;;;;;22.50;15.75;;;;;19.39;59.58;101225.69;6232758;22;45447;-77
2022/06/20 09:19:26;;;;;;;;;15.75;15.00;;;;;19.44;59.55;101226.44;6219522;22;45178;-76
2022/06/20 09:22:17;;;;;;;;;19.75;17.00;;;;;19.48;59.10;101225.38;6202175;22;45612;-75
2022/06/20 09:25:02;;;;;;;;;18.00;16.75;;;;;19.56;59.42;101217.97;6198901;22;46440;-75
2022/06/20 09:27:59;;;;;;;;;20.00;18.00;;;;;19.69;59.27;101222.97;6219689;22;45293;-75
2022/06/20 09:30:39;;;;;;;;;21.00;17.25;;;;;19.82;59.28;101210.94;6247922;22;45337;-75
2022/06/20 09:33:38;;;;;;;;;21.00;19.75;;;;;19.92;58.39;101223.06;6218887;22;45446;-76
2022/06/20 09:36:17;;;;;;;;;16.25;14.50;;;;;19.93;58.31;101231.94;6247790;22;45272;-76
2022/06/20 09:39:20;;;;;;;;;18.25;16.00;;;;;19.94;58.11;101241.69;6247604;22;45179;-76
2022/06/20 09:42:07;;;;;;;;;14.50;14.25;;;;;20.05;58.26;101240.41;6208787;22;45414;-77
2022/06/20 09:44:48;;;;;;;;;17.50;16.50;;;;;20.10;58.17;101240.25;6218351;22;45487;-76
2022/06/20 09:47:32;;;;;;;;;17.25;15.50;;;;;20.23;58.30;101246.91;6247295;22;45530;-79
2022/06/20 09:50:28;;;;;;;;;14.50;14.50;;;;;20.40;57.93;101248.97;6245684;22;45391;-76
2022/06/20 09:53:22;;;;;;;;;16.75;16.25;;;;;20.56;57.65;101240.41;6246362;22;45279;-77
2022/06/20 09:55:55;;;;;;;;;23.25;21.00;;;;;;;;6246263;22;45372;-77
2022/06/20 09:58:47;;;;;;;;;36.00;31.50;;;;;20.77;57.09;101241.38;6218901;22;47369;-78
2022/06/20 10:01:28;;;;;;;;;19.25;17.50;;;;;20.82;56.88;101248.34;6246150;22;45287;-76
2022/06/20 10:04:01;;;;;;;;;18.25;15.50;;;;;20.82;56.32;101251.00;6244433;22;45287;-78
2022/06/20 10:06:58;;;;;;;;;15.50;14.00;;;;;20.83;56.11;101251.88;6245218;22;45462;-76
2022/06/20 10:09:34;;;;;;;;;14.25;13.25;;;;;20.90;56.13;101243.56;6246253;22;45323;-76
2022/06/20 10:12:21;;;;;;;;;17.75;17.00;;;;;20.98;55.58;101245.03;6245530;22;45248;-77
2022/06/20 10:14:59;;;;;;;;;18.00;17.25;;;;;20.99;55.71;101245.00;6218931;22;45285;-76
2022/06/20 10:17:48;;;;;;;;;11.75;11.00;;;;;21.11;55.22;101246.31;6245392;22;45193;-77
2022/06/20 10:20:23;;;;;;;;;16.25;15.25;;;;;21.32;55.47;101245.44;6217965;22;45967;-77
2022/06/20 10:23:04;;;;;;;;;15.00;14.00;;;;;21.53;55.04;101246.41;6246395;22;45273;-77
2022/06/20 10:25:48;;;;;;;;;16.00;14.25;;;;;21.70;54.62;101240.34;6245934;22;45267;-77
2022/06/20 10:28:46;;;;;;;;;11.50;10.00;;;;;21.92;53.45;101237.63;6246917;22;45157;-77
2022/06/20 10:31:37;;;;;;;;;14.25;12.75;;;;;22.05;53.23;101245.13;6245935;22;46138;-77
2022/06/20 10:34:27;;;;;;;;;11.25;11.25;;;;;22.25;53.38;101255.91;6240927;22;45443;-77
2022/06/20 10:37:18;;;;;;;;;12.00;10.75;;;;;22.52;52.90;101251.09;6246068;22;45457;-77
2022/06/20 10:40:02;;;;;;;;;13.50;13.00;;;;;22.72;51.98;101250.19;6246315;22;45215;-76
2022/06/20 10:42:49;;;;;;;;;10.75;10.75;;;;;22.87;51.91;101254.84;6218698;22;46362;-77
2022/06/20 10:45:26;;;;;;;;;11.67;9.67;;;;;23.08;51.22;101255.66;6244660;22;45253;-80
2022/06/20 10:48:33;;;;;;;;;10.50;8.75;;;;;23.14;50.81;101241.06;6218553;22;45248;-76
2022/06/20 10:51:28;;;;;;;;;13.00;11.50;;;;;23.18;50.09;101249.88;6246066;22;45312;-76
2022/06/20 10:54:05;;;;;;;;;15.00;13.50;;;;;23.18;50.55;101257.94;6243398;22;47206;-77
2022/06/20 10:57:02;;;;;;;;;16.75;13.25;;;;;23.07;50.21;101256.63;6245122;22;45442;-76
2022/06/20 11:00:00;;;;;;;;;13.00;10.75;;;;;23.17;50.04;101259.72;6241508;22;45405;-76
2022/06/20 11:02:28;;;;;;;;;13.00;12.50;;;;;23.30;50.24;101266.25;6246519;22;45201;-75
2022/06/20 11:05:12;;;;;;;;;14.75;12.00;;;;;23.51;50.30;101263.47;6246563;22;45405;-75
2022/06/20 11:07:54;;;;;;;;;12.00;11.00;;;;;23.64;49.55;101263.72;6246898;22;45259;-75
2022/06/20 11:10:49;;;;;;;;;14.00;12.50;;;;;23.69;49.08;101270.63;6246977;22;45166;-74
2022/06/20 11:13:26;;;;;;;;;11.25;10.75;;;;;23.64;49.03;101272.66;6246214;22;45376;-75
2022/06/20 11:15:58;;;;;;;;;12.75;11.75;;;;;23.71;48.45;101271.44;6246644;22;46100;-75
2022/06/20 11:18:41;;;;;;;;;11.50;10.25;;;;;23.87;48.98;101270.66;6246457;22;45275;-75
2022/06/20 11:21:18;;;;;;;;;15.25;13.75;;;;;24.10;48.58;101264.09;6246869;22;45227;-75
2022/06/20 11:23:58;;;;;;;;;12.33;10.33;;;;;24.29;48.34;101262.16;6246616;22;45226;-75
2022/06/20 11:26:43;;;;;;;;;13.75;12.50;;;;;24.45;47.84;101266.78;6244428;22;47151;-74
2022/06/20 11:29:22;;;;;;;;;12.50;10.75;;;;;24.68;47.95;101266.41;6246735;22;45368;-74
2022/06/20 11:32:11;;;;;;;;;9.00;9.00;;;;;24.76;47.20;101271.38;6244085;22;45193;-75
2022/06/20 11:35:06;;;;;;;;;8.33;6.67;;;;;24.69;46.97;101272.66;6246330;22;45241;-75
2022/06/20 11:37:53;;;;;;;;;12.75;12.75;;;;;24.72;46.87;101275.19;6244212;22;47330;-75
2022/06/20 11:40:49;;;;;;;;;10.00;8.67;;;;;24.79;46.75;101272.09;6246608;22;45357;-75
2022/06/20 11:43:30;;;;;;;;;23.00;20.25;;;;;24.99;46.54;101256.63;6246632;22;45373;-75
2022/06/20 11:46:22;;;;;;;;;40.00;35.00;;;;;25.02;45.98;101268.13;6246298;22;45389;-75
2022/06/20 11:49:21;;;;;;;;;31.75;28.25;;;;;25.15;46.24;101265.63;6246001;22;45156;-75
2022/06/20 11:52:01;;;;;;;;;19.75;17.50;;;;;25.31;45.71;101273.72;6246680;22;45094;-73
2022/06/20 11:54:39;;;;;;;;;12.00;12.00;;;;;25.41;45.69;101268.66;6245670;22;45473;-75
2022/06/20 11:57:42;;;;;;;;;11.50;11.00;;;;;25.48;45.41;101270.94;6277722;22;45117;-74
2022/06/20 12:00:21;;;;;;;;;13.25;12.00;;;;;25.71;44.70;101266.00;6246106;22;45265;-74